Domov               UVHVVR             MKGP            O straneh              
ZDRAVSTVENO VARSTVO RASTLIN
  MREŽA AGROMET. POSTAJ
 ► PROGNOSTIČNA OBVESTILA
AGROMETEOROLOŠKI PODATKI -
ARSO
OBVLADOVANJE TVEGANJ ZARADI
NEUGODNIH VREMENSKIH RAZMER
  ► NARAVNE NESREČE
  ► SUŠA/MOČA
  ► NAMAKANJE
  ► ŽLED (gozdarstvo)
KARTOGRAFSKI PRIKAZI
SPLETNE POVEZAVE
PROJEKTI IN PUBLIKACIJE

AGROMETEOROLOŠKA MREŽA: VREMENSKE POSTAJE IN FENOLOŠKA OPAZOVANJA

Pregled podatkov za lokacijo Purisima, meteorološka postaja 863702

Pregled senzorjev na lokaciji

ID Ime Zadnja
vrednost
Datum
zadnje
spremembe
Tip
senzorja
4192 Omočenost lista (U) 0 U 23.3.2019 00:44 A730WET
4193 Padavine (mm) 0 mm 23.3.2019 00:45 Rain-O-Matic
4191 Relativna vlaga 2 m (% RH) 53,02 % RH 23.3.2019 00:45 50YA
4190 Temperatura 2 m (°C) 9,34 °C 23.3.2019 00:45 50YA

Pregled podatkov zadnjih 24 ur

Zap.
št.
Datum in čas Purisima
Omočenost
lista
Padavine Relativna
vlaga
2
m
Temperatura
2
m
1 22.3.2019 23:30
2 22.3.2019 23:00
3 22.3.2019 22:30
4 22.3.2019 22:00 0 0 63,6 7,9
5 22.3.2019 21:30 0 0 60,4 8
6 22.3.2019 21:00 0 0 59,4 8,2
7 22.3.2019 20:30 0 0 56,3 9,3
8 22.3.2019 20:00 0 0 54,2 9,6
9 22.3.2019 19:30 0 0 49,8 10
10 22.3.2019 19:00 0 0 50 10,8
11 22.3.2019 18:30 0 0 43,8 12,9
12 22.3.2019 18:00 0 0 32,5 16,2
13 22.3.2019 17:30 0 0 29 17,1
14 22.3.2019 17:00 0 0 27,6 17,2
15 22.3.2019 16:30 0 0 28,4 17,4
16 22.3.2019 16:00 0 0 30,4 17,7
17 22.3.2019 15:30 0 0 31 17,6
18 22.3.2019 15:00 0 0 31,7 17,8
19 22.3.2019 14:30 0 0 31,9 17,5
20 22.3.2019 14:00 0 0 31,8 17,6
21 22.3.2019 13:30 0 0 33,9 17,9
22 22.3.2019 13:00 0 0 36,4 17,7
23 22.3.2019 12:30 0 0 34 18,8
24 22.3.2019 12:00 0 0 25,8 20,2
25 22.3.2019 11:30 0 0 25,3 19,5
26 22.3.2019 11:00 0 0 27,3 18,7
27 22.3.2019 10:30 0 0 28,3 18
28 22.3.2019 10:00 0 0 30,5 17,2
29 22.3.2019 09:30 0 0 30,7 16,6
30 22.3.2019 09:00 0 0 31,9 15,6
31 22.3.2019 08:30 0 0 34,4 14,4
32 22.3.2019 08:00 0 0 36,9 13,2
33 22.3.2019 07:30 0 0 40 11,9
34 22.3.2019 07:00 0 0 40,7 11,1
35 22.3.2019 06:30 0 0 41,3 10,7
36 22.3.2019 06:00 0 0 42,1 10,4
37 22.3.2019 05:30 0 0 40,9 10,7
38 22.3.2019 05:00 0 0 39,8 11
39 22.3.2019 04:30 0 0 40,4 10,9
40 22.3.2019 04:00 0 0 40,6 10,9
41 22.3.2019 03:30 0 0 41,8 10,5
42 22.3.2019 03:00 0 0 40,5 10,8
43 22.3.2019 02:30 0 0 38,8 11,2
44 22.3.2019 02:00 0 0 37,1 11,7
45 22.3.2019 01:30 0 0 38,7 11,2
46 22.3.2019 01:00 0 0 40,1 11
47 22.3.2019 00:30 0 0 39,2 11,5
48 22.3.2019 00:00 0 0 39,4 11,5
© 2011 Ministrstvo za kmetijstvo, gozdarstvo in prehrano. Vse pravice pridržane.